Fritz, Kentucky
Current Conditions -  °F | °C
As of 8:53 AM on Saturday 20 Dec 2014 (Local Time) from KJKL Reporting Station
Overcast Overcast  
Wind Chill: 28°   Ceiling: 6500
Heat Index: 28°   Visibility: 10mi
Dew Point: 22°   Wind: 0mph
Humidity: 78%   Direction: NA
Pressure: 30.23"   Gusts: NA
Location:  37.7261°N, 83.0786°W
Report Text: KJKL 201353Z AUTO 00000KT 10SM BKN065 OVC095 M02/M06 A3023 RMK AO2 SLP249 T10221056
Loading
Personal Weather Stations






























Interactive Weather Map New forecast layout! Learn more

10-Day Weather Forecast

Advertisements
Track Severe Weather on mobile